sensor_id;sensor_type;location;lat;lon;timestamp;pressure;altitude;pressure_sealevel;temperature;humidity
72525;BME280;60547;48.502;8.996;2022-09-09T00:00:27;97584.13;;;13.76;78.66
72525;BME280;60547;48.502;8.996;2022-09-09T00:05:41;97580.25;;;13.82;78.70
72525;BME280;60547;48.502;8.996;2022-09-09T00:08:16;97579.00;;;13.83;78.95
72525;BME280;60547;48.502;8.996;2022-09-09T00:10:44;97580.25;;;13.82;78.96
72525;BME280;60547;48.502;8.996;2022-09-09T00:13:30;97587.72;;;13.85;79.44
72525;BME280;60547;48.502;8.996;2022-09-09T00:16:27;97589.25;;;13.86;79.26
72525;BME280;60547;48.502;8.996;2022-09-09T00:21:52;97575.91;;;13.90;79.23
72525;BME280;60547;48.502;8.996;2022-09-09T00:27:07;97580.56;;;13.84;78.93
72525;BME280;60547;48.502;8.996;2022-09-09T00:29:44;97575.59;;;13.79;79.46
72525;BME280;60547;48.502;8.996;2022-09-09T00:32:16;97578.69;;;13.81;79.77
72525;BME280;60547;48.502;8.996;2022-09-09T00:35:00;97582.59;;;13.75;79.79
72525;BME280;60547;48.502;8.996;2022-09-09T00:37:28;97579.94;;;13.71;79.80
72525;BME280;60547;48.502;8.996;2022-09-09T00:39:59;97572.94;;;13.67;79.78
72525;BME280;60547;48.502;8.996;2022-09-09T00:42:40;97568.91;;;13.68;80.05
72525;BME280;60547;48.502;8.996;2022-09-09T00:48:04;97558.97;;;13.57;80.36
72525;BME280;60547;48.502;8.996;2022-09-09T00:50:45;97560.22;;;13.66;80.60
72525;BME280;60547;48.502;8.996;2022-09-09T01:01:36;97578.38;;;13.61;80.59
72525;BME280;60547;48.502;8.996;2022-09-09T01:04:05;97576.50;;;13.58;80.36
72525;BME280;60547;48.502;8.996;2022-09-09T01:06:36;97569.22;;;13.51;80.61
72525;BME280;60547;48.502;8.996;2022-09-09T01:09:22;97583.03;;;13.55;80.63
72525;BME280;60547;48.502;8.996;2022-09-09T01:12:15;97587.06;;;13.54;80.67
72525;BME280;60547;48.502;8.996;2022-09-09T01:14:49;97589.88;;;13.54;81.04
72525;BME280;60547;48.502;8.996;2022-09-09T01:22:22;97578.53;;;13.48;80.65
72525;BME280;60547;48.502;8.996;2022-09-09T01:27:33;97579.13;;;13.34;81.47
72525;BME280;60547;48.502;8.996;2022-09-09T01:30:00;97580.81;;;13.32;81.59
72525;BME280;60547;48.502;8.996;2022-09-09T01:32:56;97577.72;;;13.30;81.50
72525;BME280;60547;48.502;8.996;2022-09-09T01:37:55;97583.47;;;13.26;81.08
72525;BME280;60547;48.502;8.996;2022-09-09T01:40:21;97593.84;;;13.25;81.25
72525;BME280;60547;48.502;8.996;2022-09-09T01:42:46;97596.34;;;13.33;80.80
72525;BME280;60547;48.502;8.996;2022-09-09T01:45:12;97594.66;;;13.35;80.33
72525;BME280;60547;48.502;8.996;2022-09-09T01:47:38;97600.56;;;13.37;80.18
72525;BME280;60547;48.502;8.996;2022-09-09T01:50:03;97602.09;;;13.38;79.83
72525;BME280;60547;48.502;8.996;2022-09-09T01:52:30;97604.75;;;13.33;79.77
72525;BME280;60547;48.502;8.996;2022-09-09T01:54:57;97595.25;;;13.30;79.56
72525;BME280;60547;48.502;8.996;2022-09-09T01:58:24;97593.84;;;13.25;80.03
72525;BME280;60547;48.502;8.996;2022-09-09T02:00:23;97584.22;;;13.17;80.00
72525;BME280;60547;48.502;8.996;2022-09-09T02:03:17;97586.72;;;13.24;80.15
72525;BME280;60547;48.502;8.996;2022-09-09T02:05:55;97587.00;;;13.17;80.14
72525;BME280;60547;48.502;8.996;2022-09-09T02:08:28;97590.69;;;13.14;80.72
72525;BME280;60547;48.502;8.996;2022-09-09T02:11:07;97599.22;;;13.11;81.08
72525;BME280;60547;48.502;8.996;2022-09-09T02:13:37;97591.28;;;13.09;80.78
72525;BME280;60547;48.502;8.996;2022-09-09T02:16:18;97594.25;;;13.15;80.83
72525;BME280;60547;48.502;8.996;2022-09-09T02:18:56;97595.03;;;13.15;80.84
72525;BME280;60547;48.502;8.996;2022-09-09T02:21:23;97583.53;;;13.13;81.11
72525;BME280;60547;48.502;8.996;2022-09-09T02:23:50;97595.25;;;13.21;80.68
72525;BME280;60547;48.502;8.996;2022-09-09T02:26:19;97613.72;;;13.28;80.50
72525;BME280;60547;48.502;8.996;2022-09-09T02:28:50;97595.03;;;13.15;80.43
72525;BME280;60547;48.502;8.996;2022-09-09T02:31:17;97607.50;;;13.23;80.72
72525;BME280;60547;48.502;8.996;2022-09-09T02:33:51;97616.22;;;13.25;80.69
72525;BME280;60547;48.502;8.996;2022-09-09T02:36:18;97604.41;;;13.21;80.29
72525;BME280;60547;48.502;8.996;2022-09-09T02:38:46;97612.34;;;13.32;79.98
72525;BME280;60547;48.502;8.996;2022-09-09T02:41:20;97606.44;;;13.30;79.96
72525;BME280;60547;48.502;8.996;2022-09-09T02:43:48;97597.88;;;13.24;79.86
72525;BME280;60547;48.502;8.996;2022-09-09T02:48:55;97589.22;;;13.32;80.35
72525;BME280;60547;48.502;8.996;2022-09-09T02:54:21;97602.25;;;13.25;80.26
72525;BME280;60547;48.502;8.996;2022-09-09T02:56:53;97603.94;;;13.23;80.45
72525;BME280;60547;48.502;8.996;2022-09-09T02:59:22;97587.25;;;13.10;81.05
72525;BME280;60547;48.502;8.996;2022-09-09T03:01:47;97594.16;;;13.18;80.65
72525;BME280;60547;48.502;8.996;2022-09-09T03:04:13;97590.69;;;13.14;80.94
72525;BME280;60547;48.502;8.996;2022-09-09T03:06:39;97603.88;;;13.14;81.18
72525;BME280;60547;48.502;8.996;2022-09-09T03:09:04;97587.91;;;13.14;81.12
72525;BME280;60547;48.502;8.996;2022-09-09T03:11:30;97593.84;;;13.16;81.45
72525;BME280;60547;48.502;8.996;2022-09-09T03:13:56;97603.09;;;13.13;81.42
72525;BME280;60547;48.502;8.996;2022-09-09T03:16:22;97601.28;;;13.19;81.31
72525;BME280;60547;48.502;8.996;2022-09-09T03:18:48;97610.31;;;13.23;80.70
72525;BME280;60547;48.502;8.996;2022-09-09T03:21:13;97615.53;;;13.12;81.34
72525;BME280;60547;48.502;8.996;2022-09-09T03:23:39;97612.19;;;13.27;81.10
72525;BME280;60547;48.502;8.996;2022-09-09T03:26:05;97609.88;;;13.34;80.66
72525;BME280;60547;48.502;8.996;2022-09-09T03:28:30;97619.03;;;13.44;80.38
72525;BME280;60547;48.502;8.996;2022-09-09T03:31:00;97606.91;;;13.38;80.37
72525;BME280;60547;48.502;8.996;2022-09-09T03:33:26;97605.69;;;13.39;80.63
72525;BME280;60547;48.502;8.996;2022-09-09T03:35:52;97598.22;;;13.36;81.05
72525;BME280;60547;48.502;8.996;2022-09-09T03:38:18;97592.94;;;13.38;81.38
72525;BME280;60547;48.502;8.996;2022-09-09T03:40:54;97602.59;;;13.46;81.68
72525;BME280;60547;48.502;8.996;2022-09-09T03:43:25;97589.56;;;13.52;80.25
72525;BME280;60547;48.502;8.996;2022-09-09T03:45:50;97599.97;;;13.51;80.35
72525;BME280;60547;48.502;8.996;2022-09-09T03:48:17;97598.25;;;13.54;80.35
72525;BME280;60547;48.502;8.996;2022-09-09T03:50:47;97592.66;;;13.54;80.45
72525;BME280;60547;48.502;8.996;2022-09-09T03:53:14;97584.59;;;13.47;79.97
72525;BME280;60547;48.502;8.996;2022-09-09T03:55:47;97593.59;;;13.51;80.08
72525;BME280;60547;48.502;8.996;2022-09-09T03:58:14;97590.34;;;13.52;80.46
72525;BME280;60547;48.502;8.996;2022-09-09T04:00:40;97589.25;;;13.50;80.00
72525;BME280;60547;48.502;8.996;2022-09-09T04:03:11;97591.09;;;13.53;80.16
72525;BME280;60547;48.502;8.996;2022-09-09T04:05:39;97592.84;;;13.69;79.15
72525;BME280;60547;48.502;8.996;2022-09-09T04:08:08;97599.34;;;13.66;79.80
72525;BME280;60547;48.502;8.996;2022-09-09T04:10:34;97580.41;;;13.61;80.23
72525;BME280;60547;48.502;8.996;2022-09-09T04:13:02;97573.88;;;13.64;79.96
72525;BME280;60547;48.502;8.996;2022-09-09T04:15:27;97574.03;;;13.69;80.01
72525;BME280;60547;48.502;8.996;2022-09-09T04:17:53;97584.28;;;13.72;79.52
72525;BME280;60547;48.502;8.996;2022-09-09T04:20:18;97580.56;;;13.75;80.12
72525;BME280;60547;48.502;8.996;2022-09-09T04:22:44;97591.59;;;13.79;80.17
72525;BME280;60547;48.502;8.996;2022-09-09T04:25:10;97586.00;;;13.79;80.10
72525;BME280;60547;48.502;8.996;2022-09-09T04:27:35;97597.03;;;13.82;80.09
72525;BME280;60547;48.502;8.996;2022-09-09T04:30:04;97586.78;;;13.79;79.92
72525;BME280;60547;48.502;8.996;2022-09-09T04:32:29;97600.44;;;13.86;79.65
72525;BME280;60547;48.502;8.996;2022-09-09T04:34:57;97594.84;;;13.77;80.44
72525;BME280;60547;48.502;8.996;2022-09-09T04:37:22;97585.69;;;13.77;80.65
72525;BME280;60547;48.502;8.996;2022-09-09T04:39:50;97595.47;;;13.81;80.46
72525;BME280;60547;48.502;8.996;2022-09-09T04:42:15;97589.25;;;13.77;80.20
72525;BME280;60547;48.502;8.996;2022-09-09T04:44:41;97592.53;;;13.76;80.12
72525;BME280;60547;48.502;8.996;2022-09-09T04:47:07;97590.81;;;13.78;80.32
72525;BME280;60547;48.502;8.996;2022-09-09T04:49:32;97586.00;;;13.70;80.39
72525;BME280;60547;48.502;8.996;2022-09-09T04:51:57;97597.81;;;13.65;80.85
72525;BME280;60547;48.502;8.996;2022-09-09T04:54:23;97598.25;;;13.63;80.71
72525;BME280;60547;48.502;8.996;2022-09-09T04:56:50;97597.78;;;13.55;80.98
72525;BME280;60547;48.502;8.996;2022-09-09T04:59:16;97595.16;;;13.52;81.16
72525;BME280;60547;48.502;8.996;2022-09-09T05:01:41;97602.44;;;13.49;81.44
72525;BME280;60547;48.502;8.996;2022-09-09T05:04:07;97601.50;;;13.52;81.39
72525;BME280;60547;48.502;8.996;2022-09-09T05:06:33;97611.00;;;13.55;81.16
72525;BME280;60547;48.502;8.996;2022-09-09T05:08:59;97615.81;;;13.64;80.96
72525;BME280;60547;48.502;8.996;2022-09-09T05:11:27;97612.25;;;13.63;80.95
72525;BME280;60547;48.502;8.996;2022-09-09T05:13:53;97615.34;;;13.65;80.90
72525;BME280;60547;48.502;8.996;2022-09-09T05:16:19;97602.75;;;13.61;81.22
72525;BME280;60547;48.502;8.996;2022-09-09T05:18:45;97614.28;;;13.72;81.61
72525;BME280;60547;48.502;8.996;2022-09-09T05:21:12;97614.75;;;13.79;81.04
72525;BME280;60547;48.502;8.996;2022-09-09T05:23:38;97621.28;;;13.76;81.08
72525;BME280;60547;48.502;8.996;2022-09-09T05:26:06;97629.66;;;13.85;80.44
72525;BME280;60547;48.502;8.996;2022-09-09T05:28:34;97624.53;;;13.84;79.55
72525;BME280;60547;48.502;8.996;2022-09-09T05:31:03;97641.47;;;13.89;79.54
72525;BME280;60547;48.502;8.996;2022-09-09T05:33:30;97622.81;;;13.86;79.86
72525;BME280;60547;48.502;8.996;2022-09-09T05:35:57;97626.41;;;13.87;80.55
72525;BME280;60547;48.502;8.996;2022-09-09T05:38:23;97631.38;;;13.92;80.70
72525;BME280;60547;48.502;8.996;2022-09-09T05:40:52;97627.81;;;13.92;80.77
72525;BME280;60547;48.502;8.996;2022-09-09T05:43:19;97626.25;;;13.90;81.32
72525;BME280;60547;48.502;8.996;2022-09-09T05:45:48;97629.50;;;13.89;80.51
72525;BME280;60547;48.502;8.996;2022-09-09T05:48:16;97627.03;;;13.91;81.08
72525;BME280;60547;48.502;8.996;2022-09-09T05:50:42;97640.88;;;14.04;80.06
72525;BME280;60547;48.502;8.996;2022-09-09T05:53:09;97636.19;;;14.01;80.17
72525;BME280;60547;48.502;8.996;2022-09-09T05:55:36;97636.50;;;14.03;80.41
72525;BME280;60547;48.502;8.996;2022-09-09T05:58:01;97622.22;;;14.10;79.99
72525;BME280;60547;48.502;8.996;2022-09-09T06:00:27;97632.78;;;14.24;79.37
72525;BME280;60547;48.502;8.996;2022-09-09T06:02:54;97635.88;;;14.26;79.64
72525;BME280;60547;48.502;8.996;2022-09-09T06:05:20;97635.88;;;14.26;80.19
72525;BME280;60547;48.502;8.996;2022-09-09T06:07:45;97634.94;;;14.29;79.82
72525;BME280;60547;48.502;8.996;2022-09-09T06:10:11;97638.69;;;14.26;79.81
72525;BME280;60547;48.502;8.996;2022-09-09T06:12:39;97634.31;;;14.25;80.24
72525;BME280;60547;48.502;8.996;2022-09-09T06:15:05;97625.31;;;14.30;80.72
72525;BME280;60547;48.502;8.996;2022-09-09T06:17:31;97630.28;;;14.35;80.54
72525;BME280;60547;48.502;8.996;2022-09-09T06:19:56;97638.03;;;14.40;80.21
72525;BME280;60547;48.502;8.996;2022-09-09T06:22:22;97627.47;;;14.44;80.25
72525;BME280;60547;48.502;8.996;2022-09-09T06:24:48;97644.41;;;14.59;80.23
72525;BME280;60547;48.502;8.996;2022-09-09T06:27:13;97638.94;;;14.65;79.69
72525;BME280;60547;48.502;8.996;2022-09-09T06:29:39;97634.59;;;14.64;79.64
72525;BME280;60547;48.502;8.996;2022-09-09T06:32:04;97633.66;;;14.67;79.52
72525;BME280;60547;48.502;8.996;2022-09-09T06:34:32;97628.97;;;14.73;79.70
72525;BME280;60547;48.502;8.996;2022-09-09T06:36:57;97637.03;;;14.80;78.92
72525;BME280;60547;48.502;8.996;2022-09-09T06:39:23;97630.81;;;14.85;78.44
72525;BME280;60547;48.502;8.996;2022-09-09T06:41:48;97637.94;;;14.95;79.11
72525;BME280;60547;48.502;8.996;2022-09-09T06:44:15;97635.44;;;14.97;78.70
72525;BME280;60547;48.502;8.996;2022-09-09T06:46:41;97635.22;;;15.10;77.84
72525;BME280;60547;48.502;8.996;2022-09-09T06:49:08;97638.16;;;15.15;77.59
72525;BME280;60547;48.502;8.996;2022-09-09T06:51:35;97633.34;;;15.16;76.92
72525;BME280;60547;48.502;8.996;2022-09-09T06:54:02;97634.72;;;15.21;77.40
72525;BME280;60547;48.502;8.996;2022-09-09T06:56:33;97648.06;;;15.26;77.22
72525;BME280;60547;48.502;8.996;2022-09-09T06:59:02;97648.03;;;15.35;77.46
72525;BME280;60547;48.502;8.996;2022-09-09T07:01:39;97643.34;;;15.41;77.85
72525;BME280;60547;48.502;8.996;2022-09-09T07:04:16;97635.41;;;15.39;77.47
72525;BME280;60547;48.502;8.996;2022-09-09T07:06:44;97633.91;;;15.53;76.79
72525;BME280;60547;48.502;8.996;2022-09-09T07:09:12;97652.81;;;15.76;75.80
72525;BME280;60547;48.502;8.996;2022-09-09T07:11:43;97648.75;;;15.77;76.00
72525;BME280;60547;48.502;8.996;2022-09-09T07:14:09;97638.31;;;15.78;75.94
72525;BME280;60547;48.502;8.996;2022-09-09T07:16:38;97631.72;;;15.81;75.82
72525;BME280;60547;48.502;8.996;2022-09-09T07:19:04;97624.75;;;15.76;76.37
72525;BME280;60547;48.502;8.996;2022-09-09T07:21:31;97648.63;;;15.96;76.10
72525;BME280;60547;48.502;8.996;2022-09-09T07:23:57;97645.41;;;15.88;76.36
72525;BME280;60547;48.502;8.996;2022-09-09T07:26:25;97652.09;;;15.91;75.89
72525;BME280;60547;48.502;8.996;2022-09-09T07:28:51;97650.59;;;16.04;76.29
72525;BME280;60547;48.502;8.996;2022-09-09T07:31:25;97656.78;;;16.08;75.88
72525;BME280;60547;48.502;8.996;2022-09-09T07:33:51;97644.50;;;16.06;75.91
72525;BME280;60547;48.502;8.996;2022-09-09T07:38:50;97650.63;;;16.19;76.39
72525;BME280;60547;48.502;8.996;2022-09-09T07:41:25;97658.78;;;16.32;76.23
72525;BME280;60547;48.502;8.996;2022-09-09T07:43:52;97663.16;;;16.47;75.24
72525;BME280;60547;48.502;8.996;2022-09-09T07:46:21;97665.00;;;16.51;75.26
72525;BME280;60547;48.502;8.996;2022-09-09T07:48:49;97664.03;;;16.54;75.02
72525;BME280;60547;48.502;8.996;2022-09-09T07:51:26;97665.00;;;16.51;75.24
72525;BME280;60547;48.502;8.996;2022-09-09T07:53:54;97663.66;;;16.61;76.15
72525;BME280;60547;48.502;8.996;2022-09-09T07:56:20;97661.13;;;16.48;76.14
72525;BME280;60547;48.502;8.996;2022-09-09T07:58:49;97658.91;;;16.52;76.21
72525;BME280;60547;48.502;8.996;2022-09-09T08:01:17;97662.00;;;16.54;75.82
72525;BME280;60547;48.502;8.996;2022-09-09T08:03:47;97664.53;;;16.52;75.73
72525;BME280;60547;48.502;8.996;2022-09-09T08:06:17;97672.56;;;16.44;76.02
72525;BME280;60547;48.502;8.996;2022-09-09T08:08:42;97669.44;;;16.42;75.57
72525;BME280;60547;48.502;8.996;2022-09-09T08:11:14;97675.00;;;16.52;75.85
72525;BME280;60547;48.502;8.996;2022-09-09T08:13:41;97678.75;;;16.48;76.37
72525;BME280;60547;48.502;8.996;2022-09-09T08:16:15;97685.56;;;16.57;75.92
72525;BME280;60547;48.502;8.996;2022-09-09T08:18:41;97675.63;;;16.70;75.10
72525;BME280;60547;48.502;8.996;2022-09-09T08:21:15;97675.91;;;16.87;74.11
72525;BME280;60547;48.502;8.996;2022-09-09T08:23:44;97683.47;;;17.10;73.81
72525;BME280;60547;48.502;8.996;2022-09-09T08:26:19;97680.16;;;17.27;73.82
72525;BME280;60547;48.502;8.996;2022-09-09T08:28:48;97673.56;;;17.30;72.81
72525;BME280;60547;48.502;8.996;2022-09-09T08:31:19;97670.03;;;17.35;73.10
72525;BME280;60547;48.502;8.996;2022-09-09T08:33:45;97665.78;;;17.39;72.44
72525;BME280;60547;48.502;8.996;2022-09-09T08:36:20;97671.06;;;17.52;73.21
72525;BME280;60547;48.502;8.996;2022-09-09T08:38:48;97671.41;;;17.39;71.49
72525;BME280;60547;48.502;8.996;2022-09-09T08:41:53;97668.88;;;17.41;71.77
72525;BME280;60547;48.502;8.996;2022-09-09T08:52:14;97671.75;;;17.47;70.13
72525;BME280;60547;48.502;8.996;2022-09-09T08:54:41;97678.13;;;17.62;70.72
72525;BME280;60547;48.502;8.996;2022-09-09T08:57:11;97672.13;;;17.69;70.70
72525;BME280;60547;48.502;8.996;2022-09-09T08:59:39;97679.25;;;17.85;69.34
72525;BME280;60547;48.502;8.996;2022-09-09T09:02:25;97668.69;;;18.00;66.63
72525;BME280;60547;48.502;8.996;2022-09-09T09:12:56;97663.59;;;18.45;64.96
72525;BME280;60547;48.502;8.996;2022-09-09T09:15:24;97654.19;;;18.54;64.43
72525;BME280;60547;48.502;8.996;2022-09-09T09:17:50;97653.44;;;18.53;63.20
72525;BME280;60547;48.502;8.996;2022-09-09T09:20:20;97650.53;;;18.68;63.65
72525;BME280;60547;48.502;8.996;2022-09-09T09:22:50;97632.84;;;18.67;62.82
72525;BME280;60547;48.502;8.996;2022-09-09T09:25:19;97653.22;;;18.83;62.86
72525;BME280;60547;48.502;8.996;2022-09-09T09:28:10;97653.88;;;18.98;62.93
72525;BME280;60547;48.502;8.996;2022-09-09T09:30:48;97644.69;;;19.03;62.58
72525;BME280;60547;48.502;8.996;2022-09-09T09:36:02;97639.97;;;19.20;59.92
72525;BME280;60547;48.502;8.996;2022-09-09T09:38:28;97638.44;;;19.25;60.89
72525;BME280;60547;48.502;8.996;2022-09-09T09:40:58;97630.41;;;19.49;58.45
72525;BME280;60547;48.502;8.996;2022-09-09T09:43:35;97630.25;;;19.58;57.90
72525;BME280;60547;48.502;8.996;2022-09-09T09:46:03;97619.75;;;19.64;56.19
72525;BME280;60547;48.502;8.996;2022-09-09T09:48:29;97624.75;;;19.86;56.51
72525;BME280;60547;48.502;8.996;2022-09-09T09:51:17;97624.75;;;19.92;57.14
72525;BME280;60547;48.502;8.996;2022-09-09T09:53:44;97620.69;;;19.98;56.70
72525;BME280;60547;48.502;8.996;2022-09-09T09:56:12;97620.00;;;20.26;57.06
72525;BME280;60547;48.502;8.996;2022-09-09T10:01:24;97626.56;;;20.71;54.92
72525;BME280;60547;48.502;8.996;2022-09-09T10:03:52;97616.75;;;20.50;53.14
72525;BME280;60547;48.502;8.996;2022-09-09T10:06:29;97614.47;;;20.65;55.30
72525;BME280;60547;48.502;8.996;2022-09-09T10:08:55;97609.88;;;20.84;54.98
72525;BME280;60547;48.502;8.996;2022-09-09T10:14:30;97617.56;;;20.89;54.09
72525;BME280;60547;48.502;8.996;2022-09-09T10:19:30;97613.47;;;21.18;53.26
72525;BME280;60547;48.502;8.996;2022-09-09T10:22:23;97612.16;;;21.19;51.30
72525;BME280;60547;48.502;8.996;2022-09-09T10:24:54;97605.75;;;21.30;50.68
72525;BME280;60547;48.502;8.996;2022-09-09T10:33:10;97607.00;;;21.57;48.80
72525;BME280;60547;48.502;8.996;2022-09-09T10:35:58;97599.22;;;21.74;49.57
72525;BME280;60547;48.502;8.996;2022-09-09T10:38:51;97600.69;;;22.03;48.45
72525;BME280;60547;48.502;8.996;2022-09-09T10:44:12;97580.56;;;22.01;46.88
72525;BME280;60547;48.502;8.996;2022-09-09T10:54:55;97585.53;;;22.83;44.06
72525;BME280;60547;48.502;8.996;2022-09-09T10:57:56;97580.19;;;23.34;43.03
72525;BME280;60547;48.502;8.996;2022-09-09T11:03:02;97580.47;;;22.23;44.75
72525;BME280;60547;48.502;8.996;2022-09-09T11:05:36;97586.66;;;22.28;44.89
72525;BME280;60547;48.502;8.996;2022-09-09T11:10:59;97600.13;;;22.10;41.96
72525;BME280;60547;48.502;8.996;2022-09-09T11:13:41;97622.88;;;21.82;47.56
72525;BME280;60547;48.502;8.996;2022-09-09T11:18:39;97641.44;;;20.55;50.88
72525;BME280;60547;48.502;8.996;2022-09-09T11:21:11;97635.72;;;20.38;51.34
72525;BME280;60547;48.502;8.996;2022-09-09T11:23:43;97634.81;;;20.97;50.36
72525;BME280;60547;48.502;8.996;2022-09-09T11:26:16;97636.59;;;20.83;50.05
72525;BME280;60547;48.502;8.996;2022-09-09T11:29:07;97637.03;;;20.43;50.02
72525;BME280;60547;48.502;8.996;2022-09-09T11:31:59;97633.47;;;20.59;48.48
72525;BME280;60547;48.502;8.996;2022-09-09T11:37:50;97621.66;;;21.55;44.53
72525;BME280;60547;48.502;8.996;2022-09-09T11:40:24;97609.75;;;21.85;42.75
72525;BME280;60547;48.502;8.996;2022-09-09T11:43:10;97603.78;;;21.94;43.03
72525;BME280;60547;48.502;8.996;2022-09-09T11:45:40;97592.88;;;22.20;41.00
72525;BME280;60547;48.502;8.996;2022-09-09T11:48:35;97608.56;;;22.27;40.28
72525;BME280;60547;48.502;8.996;2022-09-09T11:51:09;97611.00;;;22.53;40.64
72525;BME280;60547;48.502;8.996;2022-09-09T11:59:03;97599.72;;;22.83;41.36
72525;BME280;60547;48.502;8.996;2022-09-09T12:06:51;97612.34;;;23.17;39.40
72525;BME280;60547;48.502;8.996;2022-09-09T12:09:46;97618.22;;;23.25;39.69
72525;BME280;60547;48.502;8.996;2022-09-09T12:19:40;97626.38;;;23.34;42.48
72525;BME280;60547;48.502;8.996;2022-09-09T12:25:09;97622.47;;;23.67;41.11
72525;BME280;60547;48.502;8.996;2022-09-09T12:28:33;97622.25;;;23.35;42.06
72525;BME280;60547;48.502;8.996;2022-09-09T12:30:40;97624.16;;;22.92;41.76
72525;BME280;60547;48.502;8.996;2022-09-09T12:33:12;97625.34;;;22.66;43.15
72525;BME280;60547;48.502;8.996;2022-09-09T12:35:38;97617.31;;;22.29;44.51
72525;BME280;60547;48.502;8.996;2022-09-09T12:38:06;97613.75;;;22.17;44.61
72525;BME280;60547;48.502;8.996;2022-09-09T12:40:37;97611.81;;;21.79;45.50
72525;BME280;60547;48.502;8.996;2022-09-09T12:43:17;97613.19;;;21.55;45.90
72525;BME280;60547;48.502;8.996;2022-09-09T12:45:43;97621.69;;;21.16;46.54
72525;BME280;60547;48.502;8.996;2022-09-09T12:48:10;97612.44;;;20.88;47.00
72525;BME280;60547;48.502;8.996;2022-09-09T12:50:49;97605.22;;;20.81;48.06
72525;BME280;60547;48.502;8.996;2022-09-09T12:53:24;97606.00;;;20.87;47.46
72525;BME280;60547;48.502;8.996;2022-09-09T12:56:01;97616.03;;;21.00;47.98
72525;BME280;60547;48.502;8.996;2022-09-09T12:58:29;97619.13;;;21.18;47.72
72525;BME280;60547;48.502;8.996;2022-09-09T13:01:01;97597.56;;;22.07;45.15
72525;BME280;60547;48.502;8.996;2022-09-09T13:03:28;97597.84;;;21.98;45.82
72525;BME280;60547;48.502;8.996;2022-09-09T13:05:58;97606.00;;;22.23;44.53
72525;BME280;60547;48.502;8.996;2022-09-09T13:08:25;97600.25;;;22.76;44.39
72525;BME280;60547;48.502;8.996;2022-09-09T13:11:03;97591.97;;;22.83;43.45
72525;BME280;60547;48.502;8.996;2022-09-09T13:13:37;97595.44;;;23.01;43.44
72525;BME280;60547;48.502;8.996;2022-09-09T13:16:05;97597.03;;;23.26;42.79
72525;BME280;60547;48.502;8.996;2022-09-09T13:18:36;97593.31;;;23.37;43.19
72525;BME280;60547;48.502;8.996;2022-09-09T13:21:03;97590.06;;;22.97;43.04
72525;BME280;60547;48.502;8.996;2022-09-09T13:23:30;97586.88;;;22.71;43.59
72525;BME280;60547;48.502;8.996;2022-09-09T13:26:24;97591.97;;;22.42;44.72
72525;BME280;60547;48.502;8.996;2022-09-09T13:28:51;97591.25;;;22.36;43.84
72525;BME280;60547;48.502;8.996;2022-09-09T13:31:24;97590.59;;;22.54;41.81
72525;BME280;60547;48.502;8.996;2022-09-09T13:33:52;97577.31;;;22.79;42.04
72525;BME280;60547;48.502;8.996;2022-09-09T13:36:30;97567.50;;;23.35;40.76
72525;BME280;60547;48.502;8.996;2022-09-09T13:38:58;97574.94;;;23.68;40.48
72525;BME280;60547;48.502;8.996;2022-09-09T13:41:36;97573.53;;;23.56;39.73
72525;BME280;60547;48.502;8.996;2022-09-09T13:44:03;97578.22;;;23.23;40.06
72525;BME280;60547;48.502;8.996;2022-09-09T13:46:38;97576.31;;;22.71;40.14
72525;BME280;60547;48.502;8.996;2022-09-09T13:51:40;97567.50;;;22.80;39.25
72525;BME280;60547;48.502;8.996;2022-09-09T13:54:11;97560.56;;;23.06;38.93
72525;BME280;60547;48.502;8.996;2022-09-09T13:56:39;97568.28;;;23.35;39.34
72525;BME280;60547;48.502;8.996;2022-09-09T13:59:09;97556.16;;;23.35;38.83
72525;BME280;60547;48.502;8.996;2022-09-09T14:01:36;97558.69;;;23.38;39.41
72525;BME280;60547;48.502;8.996;2022-09-09T14:04:03;97551.13;;;22.92;40.11
72525;BME280;60547;48.502;8.996;2022-09-09T14:06:29;97546.47;;;22.95;40.56
72525;BME280;60547;48.502;8.996;2022-09-09T14:08:54;97552.97;;;22.90;40.17
72525;BME280;60547;48.502;8.996;2022-09-09T14:11:20;97539.34;;;22.47;40.11
72525;BME280;60547;48.502;8.996;2022-09-09T14:13:47;97553.69;;;22.60;40.17
72525;BME280;60547;48.502;8.996;2022-09-09T14:16:18;97538.53;;;22.87;39.92
72525;BME280;60547;48.502;8.996;2022-09-09T14:18:44;97546.56;;;23.38;38.63
72525;BME280;60547;48.502;8.996;2022-09-09T14:21:11;97546.88;;;23.34;37.88
72525;BME280;60547;48.502;8.996;2022-09-09T14:23:36;97547.16;;;23.31;37.17
72525;BME280;60547;48.502;8.996;2022-09-09T14:26:04;97538.94;;;23.51;37.76
72525;BME280;60547;48.502;8.996;2022-09-09T14:28:31;97548.28;;;23.46;38.27
72525;BME280;60547;48.502;8.996;2022-09-09T14:31:00;97532.91;;;23.61;37.67
72525;BME280;60547;48.502;8.996;2022-09-09T14:33:26;97529.00;;;23.64;37.62
72525;BME280;60547;48.502;8.996;2022-09-09T14:36:01;97543.91;;;23.70;37.90
72525;BME280;60547;48.502;8.996;2022-09-09T14:38:32;97537.03;;;23.84;37.55
72525;BME280;60547;48.502;8.996;2022-09-09T14:40:59;97549.22;;;23.79;36.84
72525;BME280;60547;48.502;8.996;2022-09-09T14:43:26;97536.84;;;23.76;37.05
72525;BME280;60547;48.502;8.996;2022-09-09T14:45:52;97540.44;;;23.58;37.63
72525;BME280;60547;48.502;8.996;2022-09-09T14:48:17;97537.78;;;23.84;37.60
72525;BME280;60547;48.502;8.996;2022-09-09T14:50:43;97556.84;;;23.90;37.05
72525;BME280;60547;48.502;8.996;2022-09-09T14:53:08;97569.34;;;23.81;38.02
72525;BME280;60547;48.502;8.996;2022-09-09T14:55:35;97555.25;;;23.21;38.98
72525;BME280;60547;48.502;8.996;2022-09-09T14:58:01;97564.41;;;23.08;38.52
72525;BME280;60547;48.502;8.996;2022-09-09T15:00:26;97565.91;;;23.15;38.05
72525;BME280;60547;48.502;8.996;2022-09-09T15:02:53;97561.59;;;23.33;36.09
72525;BME280;60547;48.502;8.996;2022-09-09T15:05:19;97561.47;;;23.19;36.36
72525;BME280;60547;48.502;8.996;2022-09-09T15:07:44;97560.03;;;23.62;37.08
72525;BME280;60547;48.502;8.996;2022-09-09T15:10:09;97563.19;;;23.28;36.14
72525;BME280;60547;48.502;8.996;2022-09-09T15:12:36;97568.31;;;23.05;36.25